Spanish Hills, CA

3:42 PM PST on February 23, 2017 (GMT -0800)
Los Posas Estates | | Change Station

Elev 430 ft 34.24 °N, 119.07 °W | Updated 25 seconds ago

Clear
Clear
60.7 °F
Feels Like 60.7 °F
N
8.0
Wind Variable Wind from SW
Gusts 8.0 mph

Today
High -- | Low -- °F
--% Chance of Precip.
Yesterday
High -- | Low -- °F
Precip. -- in
Pressure 30.06 in
Visibility 10.0 miles
Clouds Clear
Dew Point 38 °F
Humidity 42%
Rainfall 0.00 in
Snow Depth Not available.
6:31 AM 5:47 PM
Waning Crescent, 8% visible
METAR KCMA 232255Z 27014KT 10SM CLR 15/01 A3003 RMK AO2 SLP179 T01500006
Pressure 30.06 in
Visibility 10.0 miles
Clouds Clear
Dew Point 38 °F
Humidity 42%
Rainfall 0.00 in
Snow Depth Not available.
6:31 AM 5:47 PM
Waning Crescent, 8% visible
METAR KCMA 232255Z 27014KT 10SM CLR 15/01 A3003 RMK AO2 SLP179 T01500006

Get Your Daily Forecast Email!

Thanks for signing up!

Be on the lookout for a verification email in your inbox.

You'll start receiving the daily forecast at 8 AM.

×

10-Day Weather Forecast

Almanac

Astronomy

Feb. 23, 2017 Rise Set
Actual Time
Civil Twilight
Nautical Twilight
Astronomical Twilight
Moon
Length of Visible Light
Length of Day
Tomorrow will be .
, % of the Moon is Illuminated

Today's Extremes

State Highs State Lows

Community

WunderPhotos

Upload Photos

1,962,540 photos uploaded!

WunderBlog® & News

Nearby

Air Quality

  Air Quality AQ Index Pollutant
Not available.

Snow Depth

Station Depth Elevation

Earthquake Activity

City Distance Mag. Time & Date
Minimum magnitude displayed is 2.5.

Coastal Water Temperatures

Place Temperature

Stations

Nearby Weather Stations

Station Location Temp. Windchill Dew Point Humidity Wind Precip. Elev Updated Type
                   

Watches & Warnings

High Surf Advisory
Issued: 2:14 PM PST Feb. 23, 2017 – National Weather Service

... High surf advisory remains in effect until 9 PM PST this
evening...

* surf... surf of 6 to 9 feet with local sets up to 10 feet will
continue across Los Angeles and Ventura County beaches through
this evening. The largest surf will likely occur on west facing
beaches such as Ventura and el porto.

* Impacts... large waves and strong rip currents will increase
the risk of ocean drowning for swimmers and surfers. Large
breaking waves can cause injury... wash people off beaches and
rocks... and capsize small boats nearshore.

Precautionary/preparedness actions...

A high surf advisory means that high surf will affect beaches in
the advisory area... producing localized beach erosion and
dangerous swimming conditions.


/Kj